Skip Navigation Links Skip Navigation Links

Current Weather

Blue Ridge, Martinsville, Va.

For information only: do not use for flight planning or navigation.
Latest weather
Observation time Wednesday, February 20, 2019 1:10 PM EST
Local time Wednesday, February 20, 2019 1:32 PM EST
Flight conditions Instrument Meteorological Conditions
Winds
Wind direction Northeast (50°)
Wind speed 6 mph
Visibility 2.5 mi.
Present weather drizzle
Sky condition
Ceiling 800 ft. overcast
Cloud layer overcast 800 ft.
Temperature 32°F
Dewpoint 32°F
Altimeter 30.33 in.Hg
Precipitation
Precipitation last hour 0.01 in.
Derived measurements
Relative humidity 99%
Wind chill 27°F
Density altitude -1246 ft.
Remarks
Fully automated report.
Automated weather observing station with precipitation discriminator.
METAR KMTV 201810Z AUTO 05005KT 2 1/2SM DZ OVC008 00/00 A3033 RMK AO2 P0001 T00020000

Settings

Location code

InnerDrive.Weather 4.0.6770.0 Release CLR 4.0.30319.42000
Copyright ©2018 Inner Drive Technology. All rights reserved. Portions Copyright ©1986-2018 David Braverman.

Find weather

Site navigation


Skip Navigation Links

Place info

Page info

PayPal - The safer, easier way to pay online!

Return home.

Copyright ©2019 Inner Drive Technology. Purveyors of fine, hand-crafted computer software. Page printed 2019-02-20T18:32:35 UTC.